Time;durP1;ratioP1;P1;durP2;ratioP2;P2;SDS_P1;SDS_P2;PMS_P1;PMS_P2;Temp;Humidity;BMP_temperature;BMP_pressure;BME280_temperature;BME280_humidity;BME280_pressure;Samples;Min_cycle;Max_cycle;Signal;HPM_P1;HPM_P2
2023/08/31 00:05:07;;;;;;;;;;;;;;;14.09;79.67;99985.95;105637;1287;71238;-89
2023/08/31 00:08:39;;;;;;;;;;;;;;;14.10;79.80;99982.64;104789;1294;61336;-88
2023/08/31 00:12:06;;;;;;;;;;;;;;;14.12;79.78;99988.44;104807;1297;60807;-88
2023/08/31 00:15:35;;;;;;;;;;;;;;;14.13;79.68;99990.45;104284;1304;74736;-88
2023/08/31 00:18:59;;;;;;;;;;;;;;;14.14;79.75;99986.98;104478;1303;70748;-89
2023/08/31 00:22:25;;;;;;;;;;;;;;;14.13;79.78;99992.71;104470;1304;72604;-88
2023/08/31 00:25:52;;;;;;;;;;;;;;;14.13;79.72;99994.98;104415;1303;59394;-89
2023/08/31 00:28:50;;;;;;;;;;;;;;;14.12;79.78;99995.16;98498;1284;5002864;-88
2023/08/31 00:32:18;;;;;;;;;;;;;;;14.14;79.75;99998.05;106057;1282;67167;-88
2023/08/31 00:35:46;;;;;;;;;;;;;;;14.15;79.75;99999.23;105949;1286;71214;-87
2023/08/31 00:39:12;;;;;;;;;;;;;;;14.14;79.80;100001.67;105679;1283;61289;-88
2023/08/31 00:42:39;;;;;;;;;;;;;;;14.14;79.92;99999.09;105929;1283;59902;-88
2023/08/31 00:46:05;;;;;;;;;;;;;;;14.16;79.78;99997.95;106092;1288;73736;-88
2023/08/31 00:49:32;;;;;;;;;;;;;;;14.19;79.92;99990.56;106003;1284;67244;-88
2023/08/31 00:52:58;;;;;;;;;;;;;;;14.20;79.83;99991.73;105934;1283;73369;-87
2023/08/31 00:56:25;;;;;;;;;;;;;;;14.19;79.96;99986.91;105999;1283;61164;-88
2023/08/31 00:59:51;;;;;;;;;;;;;;;14.20;79.91;99985.51;105988;1283;58763;-88
2023/08/31 01:03:20;;;;;;;;;;;;;;;14.21;79.90;99983.18;106072;1283;74597;-88
2023/08/31 01:06:50;;;;;;;;;;;;;;;14.24;79.98;99981.88;106104;1283;68165;-88
2023/08/31 01:10:31;;;;;;;;;;;;;;;14.25;79.95;99980.27;94036;1291;15002789;-88
2023/08/31 01:13:58;;;;;;;;;;;;;;;14.25;80.04;99977.84;104733;1303;73417;-88
2023/08/31 01:17:26;;;;;;;;;;;;;;;14.24;80.12;99979.27;105130;1291;69666;-88
2023/08/31 01:21:05;;;;;;;;;;;;;;;14.25;80.01;99978.02;105181;1293;72987;-88
2023/08/31 01:24:31;;;;;;;;;;;;;;;14.24;80.01;99974.74;104587;1300;61100;-88
2023/08/31 01:27:58;;;;;;;;;;;;;;;14.24;80.13;99966.95;104681;1300;61192;-88
2023/08/31 01:31:24;;;;;;;;;;;;;;;14.24;80.08;99964.17;104552;1300;78458;-88
2023/08/31 01:34:51;;;;;;;;;;;;;;;14.26;80.09;99963.09;104640;1300;67216;-88
2023/08/31 01:38:17;;;;;;;;;;;;;;;14.27;80.14;99957.48;104393;1299;71182;-87
2023/08/31 01:41:43;;;;;;;;;;;;;;;14.28;80.09;99953.45;104493;1300;61377;-88
2023/08/31 01:45:10;;;;;;;;;;;;;;;14.27;80.07;99950.39;104423;1300;59212;-88
2023/08/31 01:48:36;;;;;;;;;;;;;;;14.27;80.19;99952.45;105014;1291;73401;-88
2023/08/31 01:52:03;;;;;;;;;;;;;;;14.24;80.12;99950.67;105005;1292;70193;-89
2023/08/31 01:55:29;;;;;;;;;;;;;;;14.23;80.21;99952.10;104320;1299;74069;-88
2023/08/31 01:58:57;;;;;;;;;;;;;;;14.22;80.21;99948.32;104634;1299;61199;-87
2023/08/31 02:02:24;;;;;;;;;;;;;;;14.20;80.17;99946.13;104908;1295;61337;-87
2023/08/31 02:05:50;;;;;;;;;;;;;;;14.19;80.18;99947.23;105099;1291;74680;-88
2023/08/31 02:09:16;;;;;;;;;;;;;;;14.16;80.19;99953.77;104736;1291;69976;-88
2023/08/31 02:12:43;;;;;;;;;;;;;;;14.13;80.19;99960.81;104953;1291;71286;-88
2023/08/31 02:16:12;;;;;;;;;;;;;;;14.11;80.24;99956.59;104818;1291;61077;-88
2023/08/31 02:19:38;;;;;;;;;;;;;;;14.10;80.30;99957.50;105133;1294;61168;-88
2023/08/31 02:23:05;;;;;;;;;;;;;;;14.09;80.23;99958.21;104791;1291;74935;-88
2023/08/31 02:26:31;;;;;;;;;;;;;;;14.09;80.35;99954.23;104835;1291;68735;-88
2023/08/31 02:29:58;;;;;;;;;;;;;;;14.10;80.28;99955.92;105025;1291;72395;-88
2023/08/31 02:33:24;;;;;;;;;;;;;;;14.10;80.32;99950.21;105824;1288;61208;-88
2023/08/31 02:36:51;;;;;;;;;;;;;;;14.07;80.31;99951.89;105711;1283;61260;-88
2023/08/31 02:40:17;;;;;;;;;;;;;;;14.05;80.32;99950.23;105614;1287;75040;-88
2023/08/31 02:43:44;;;;;;;;;;;;;;;14.06;80.29;99956.28;106016;1288;67296;-89
2023/08/31 02:47:10;;;;;;;;;;;;;;;14.04;80.38;99955.46;105924;1283;73441;-88
2023/08/31 02:50:38;;;;;;;;;;;;;;;14.05;80.45;99953.20;105747;1288;61269;-88
2023/08/31 02:54:05;;;;;;;;;;;;;;;14.06;80.48;99949.52;106093;1287;61266;-88
2023/08/31 02:57:31;;;;;;;;;;;;;;;14.08;80.54;99944.23;105375;1289;77196;-88
2023/08/31 03:00:58;;;;;;;;;;;;;;;14.10;80.46;99948.67;105239;1292;67102;-88
2023/08/31 03:04:24;;;;;;;;;;;;;;;14.11;80.46;99949.13;105247;1289;71318;-88
2023/08/31 03:07:51;;;;;;;;;;;;;;;14.10;80.41;99955.91;105254;1294;59986;-88
2023/08/31 03:11:17;;;;;;;;;;;;;;;14.10;80.46;99963.03;105332;1289;60120;-88
2023/08/31 03:14:44;;;;;;;;;;;;;;;14.11;80.49;99963.33;105347;1291;73799;-88
2023/08/31 03:18:10;;;;;;;;;;;;;;;14.12;80.39;99961.72;105266;1293;69507;-88
2023/08/31 03:21:36;;;;;;;;;;;;;;;14.12;80.37;99962.95;104962;1291;71590;-89
2023/08/31 03:25:03;;;;;;;;;;;;;;;14.10;80.42;99963.02;104493;1298;61170;-89
2023/08/31 03:28:29;;;;;;;;;;;;;;;14.06;80.41;99961.29;104299;1309;59371;-88
2023/08/31 03:31:56;;;;;;;;;;;;;;;14.05;80.41;99956.67;103738;1310;73491;-88
2023/08/31 03:35:26;;;;;;;;;;;;;;;14.03;80.39;99954.89;103983;1308;68447;-87
2023/08/31 03:38:49;;;;;;;;;;;;;;;14.02;80.44;99954.73;103763;1308;71448;-89
2023/08/31 03:42:16;;;;;;;;;;;;;;;14.00;80.35;99951.52;103462;1309;223377;-88
2023/08/31 03:45:42;;;;;;;;;;;;;;;13.98;80.38;99948.85;103445;1309;59381;-89
2023/08/31 03:49:09;;;;;;;;;;;;;;;13.94;80.35;99950.89;103695;1309;73113;-88
2023/08/31 03:52:35;;;;;;;;;;;;;;;13.90;80.46;99951.38;103594;1308;68487;-88
2023/08/31 03:56:04;;;;;;;;;;;;;;;13.89;80.54;99945.38;103613;1309;71664;-88
2023/08/31 03:59:30;;;;;;;;;;;;;;;13.85;80.49;99939.98;103432;1311;59453;-88
2023/08/31 04:02:56;;;;;;;;;;;;;;;13.80;80.52;99933.45;104023;1308;63037;-89
2023/08/31 04:06:23;;;;;;;;;;;;;;;13.76;80.52;99928.38;104448;1300;73199;-88
2023/08/31 04:09:49;;;;;;;;;;;;;;;13.74;80.57;99937.65;104936;1291;68569;-88
2023/08/31 04:13:16;;;;;;;;;;;;;;;13.73;80.56;99942.04;104504;1300;72580;-88
2023/08/31 04:16:42;;;;;;;;;;;;;;;13.72;80.48;99942.08;105161;1291;61312;-89
2023/08/31 04:20:08;;;;;;;;;;;;;;;13.69;80.55;99940.45;105031;1291;61471;-88
2023/08/31 04:23:35;;;;;;;;;;;;;;;13.68;80.50;99941.17;104593;1299;74562;-89
2023/08/31 04:27:01;;;;;;;;;;;;;;;13.68;80.58;99944.80;104666;1299;67619;-89
2023/08/31 04:30:28;;;;;;;;;;;;;;;13.69;80.67;99942.00;104625;1302;72333;-88
2023/08/31 04:33:55;;;;;;;;;;;;;;;13.72;80.63;99945.02;104540;1302;60850;-89
2023/08/31 04:37:22;;;;;;;;;;;;;;;13.74;80.69;99950.15;104624;1299;60076;-89
2023/08/31 04:40:48;;;;;;;;;;;;;;;13.77;80.68;99952.27;104059;1306;74588;-89
2023/08/31 04:44:14;;;;;;;;;;;;;;;13.78;80.54;99951.00;104055;1305;71803;-89
2023/08/31 04:47:41;;;;;;;;;;;;;;;13.78;80.64;99952.89;104141;1312;71610;-88
2023/08/31 04:51:07;;;;;;;;;;;;;;;13.81;80.74;99952.63;104236;1302;61186;-88
2023/08/31 04:54:34;;;;;;;;;;;;;;;13.85;80.68;99954.73;104245;1301;61333;-89
2023/08/31 04:58:00;;;;;;;;;;;;;;;13.84;80.67;99956.13;104532;1300;74741;-88
2023/08/31 05:01:27;;;;;;;;;;;;;;;13.86;80.77;99952.27;105057;1295;68601;-88
2023/08/31 05:04:54;;;;;;;;;;;;;;;13.87;80.86;99950.63;104951;1292;72955;-89
2023/08/31 05:08:20;;;;;;;;;;;;;;;13.89;80.78;99946.77;105131;1291;61413;-89
2023/08/31 05:11:47;;;;;;;;;;;;;;;13.94;80.87;99947.27;105161;1292;61340;-88
2023/08/31 05:15:23;;;;;;;;;;;;;;;14.02;80.88;99945.21;105196;1292;73549;-87
2023/08/31 05:18:49;;;;;;;;;;;;;;;14.17;81.06;99949.23;105415;1289;67865;-88
2023/08/31 05:22:15;;;;;;;;;;;;;;;14.40;81.17;99947.42;105527;1289;71412;-88
2023/08/31 05:25:42;;;;;;;;;;;;;;;14.66;81.05;99949.73;105511;1287;61133;-89
2023/08/31 05:29:08;;;;;;;;;;;;;;;14.80;80.83;99954.85;105460;1291;61145;-89
2023/08/31 05:32:34;;;;;;;;;;;;;;;14.93;80.90;99958.11;105468;1289;77121;-88
2023/08/31 05:36:02;;;;;;;;;;;;;;;15.17;81.07;99952.81;105405;1289;68299;-88
2023/08/31 05:39:27;;;;;;;;;;;;;;;15.58;81.38;99959.27;105493;1289;71332;-89
2023/08/31 05:45:30;;;;;;;;;;;;;;;16.57;80.94;99959.44;105949;1282;61180;-89
2023/08/31 05:48:57;;;;;;;;;;;;;;;16.97;80.67;99961.34;104938;1295;73233;-89
2023/08/31 05:52:23;;;;;;;;;;;;;;;17.38;80.80;99958.95;104923;1296;67358;-88
2023/08/31 05:55:50;;;;;;;;;;;;;;;17.99;80.79;99963.05;104988;1298;72975;-89
2023/08/31 05:59:16;;;;;;;;;;;;;;;18.44;80.02;99970.88;105065;1297;61437;-89
2023/08/31 06:02:44;;;;;;;;;;;;;;;18.40;79.77;99971.64;104992;1294;61150;-89
2023/08/31 06:06:09;;;;;;;;;;;;;;;18.41;79.85;99970.54;105068;1299;73478;-89
2023/08/31 06:09:35;;;;;;;;;;;;;;;18.45;79.91;99967.85;104981;1295;69098;-89
2023/08/31 06:13:02;;;;;;;;;;;;;;;18.83;80.00;99970.96;104933;1295;71286;-88
2023/08/31 06:16:28;;;;;;;;;;;;;;;19.41;80.05;99984.89;104344;1304;61227;-89
2023/08/31 06:19:55;;;;;;;;;;;;;;;19.56;79.46;99993.55;104364;1302;61378;-89
2023/08/31 06:23:22;;;;;;;;;;;;;;;19.94;79.69;99995.68;104329;1303;77103;-89
2023/08/31 06:26:48;;;;;;;;;;;;;;;20.68;79.54;99991.08;104639;1294;69176;-89
2023/08/31 06:30:18;;;;;;;;;;;;;;;21.38;79.31;99989.37;104575;1294;73353;-89
2023/08/31 06:33:44;;;;;;;;;;;;;;;21.66;78.70;100005.91;104841;1298;61074;-89
2023/08/31 06:37:16;;;;;;;;;;;;;;;21.47;78.45;100004.81;104732;1296;59609;-89
2023/08/31 06:40:43;;;;;;;;;;;;;;;21.26;78.37;100011.62;104863;1294;76056;-89
2023/08/31 06:44:09;;;;;;;;;;;;;;;20.91;78.27;100022.24;104954;1294;67426;-89
2023/08/31 06:47:35;;;;;;;;;;;;;;;20.60;78.37;100030.71;104958;1298;72579;-89
2023/08/31 06:51:03;;;;;;;;;;;;;;;20.33;78.34;100037.55;104975;1296;59615;-89
2023/08/31 06:54:28;;;;;;;;;;;;;;;20.13;78.11;100039.74;105765;1286;60063;-89
2023/08/31 06:57:55;;;;;;;;;;;;;;;20.10;78.02;100036.06;105972;1285;77215;-89
2023/08/31 07:01:21;;;;;;;;;;;;;;;20.09;78.09;100030.58;106590;1289;68005;-90
2023/08/31 07:04:52;;;;;;;;;;;;;;;20.08;77.87;100034.83;105848;1287;72066;-89
2023/08/31 07:08:16;;;;;;;;;;;;;;;19.92;77.80;100034.07;101052;1293;5479182;-89
2023/08/31 07:11:43;;;;;;;;;;;;;;;20.26;77.70;100034.13;105130;1292;60733;-89
2023/08/31 07:15:09;;;;;;;;;;;;;;;20.01;77.28;100040.31;105150;1292;73490;-90
2023/08/31 07:18:35;;;;;;;;;;;;;;;19.74;77.22;100049.09;104637;1300;67325;-89
2023/08/31 07:24:35;;;;;;;;;;;;;;;19.55;77.16;100046.80;105900;1286;59306;-90
2023/08/31 07:30:15;;;;;;;;;;;;;;;19.40;77.10;100045.90;106085;1286;74022;-88
2023/08/31 07:38:57;;;;;;;;;;;;;;;20.03;77.18;100055.94;98948;1285;10001876;-89
2023/08/31 07:42:23;;;;;;;;;;;;;;;20.34;76.87;100067.80;106123;1284;73393;-89
2023/08/31 07:45:49;;;;;;;;;;;;;;;20.65;76.62;100082.89;105994;1285;67630;-89
2023/08/31 07:49:15;;;;;;;;;;;;;;;20.43;76.40;100084.34;106101;1288;72574;-89
2023/08/31 07:52:42;;;;;;;;;;;;;;;20.26;76.60;100084.26;106084;1286;60994;-89
2023/08/31 07:56:11;;;;;;;;;;;;;;;20.06;76.53;100079.21;106122;1288;60990;-89
2023/08/31 07:59:39;;;;;;;;;;;;;;;19.79;76.29;100082.50;105612;1289;74564;-89
2023/08/31 08:03:04;;;;;;;;;;;;;;;19.50;76.27;100085.20;105492;1289;69011;-88
2023/08/31 08:06:30;;;;;;;;;;;;;;;19.19;76.25;100093.39;105031;1295;73995;-89
2023/08/31 08:09:56;;;;;;;;;;;;;;;18.89;76.29;100093.76;105102;1294;59868;-88
2023/08/31 08:13:22;;;;;;;;;;;;;;;18.66;76.31;100093.00;104578;1300;59230;-88
2023/08/31 08:16:48;;;;;;;;;;;;;;;18.49;76.34;100096.38;104576;1301;73253;-88
2023/08/31 08:20:15;;;;;;;;;;;;;;;18.32;76.35;100104.04;104724;1300;67450;-88
2023/08/31 08:23:41;;;;;;;;;;;;;;;18.06;76.23;100104.29;104670;1301;71525;-88
2023/08/31 08:27:08;;;;;;;;;;;;;;;17.91;76.43;100111.75;104505;1305;61208;-88
2023/08/31 08:30:34;;;;;;;;;;;;;;;17.78;76.50;100119.93;104577;1301;59375;-89
2023/08/31 08:34:01;;;;;;;;;;;;;;;17.68;76.40;100126.36;105042;1300;73313;-89
2023/08/31 08:37:29;;;;;;;;;;;;;;;17.59;76.35;100134.20;104747;1296;70141;-89
2023/08/31 08:40:53;;;;;;;;;;;;;;;17.47;76.43;100136.91;104810;1296;71153;-88
2023/08/31 08:44:20;;;;;;;;;;;;;;;17.40;76.56;100145.27;105240;1292;59261;-88
2023/08/31 08:47:46;;;;;;;;;;;;;;;17.30;76.32;100137.76;104868;1301;61087;-88
2023/08/31 08:51:13;;;;;;;;;;;;;;;17.29;76.55;100138.73;105274;1292;73368;-88
2023/08/31 08:54:42;;;;;;;;;;;;;;;17.39;76.54;100137.86;105480;1294;68580;-88
2023/08/31 09:21:20;;;;;;;;;;;;;;;17.56;76.17;100169.21;106111;1286;67845;-89
2023/08/31 09:24:18;;;;;;;;;;;;;;;17.49;76.12;100175.48;106059;1285;71235;-89
2023/08/31 09:27:14;;;;;;;;;;;;;;;17.45;76.24;100178.15;106006;1287;59300;-89
2023/08/31 09:30:11;;;;;;;;;;;;;;;17.43;76.22;100177.18;106245;1283;59549;-89
2023/08/31 09:43:23;;;;;;;;;;;;;;;17.80;76.25;100185.86;106061;1285;59151;-89
2023/08/31 10:01:56;;;;;;;;;;;;;;;18.27;75.75;100186.48;106115;1285;67403;-89
2023/08/31 10:05:24;;;;;;;;;;;;;;;18.34;75.79;100200.73;105935;1288;73363;-89
2023/08/31 12:33:32;;;;;;;;;;;;;;;18.17;73.75;100257.00;101082;1287;59975;-89
2023/08/31 12:59:51;;;;;;;;;;;;;;;17.77;73.35;100256.31;105377;1289;59301;-89
2023/08/31 13:10:49;;;;;;;;;;;;;;;17.95;73.43;100262.54;105800;1288;71780;-89
2023/08/31 13:22:01;;;;;;;;;;;;;;;18.12;73.17;100251.01;88423;1288;66210;-89
2023/08/31 13:24:58;;;;;;;;;;;;;;;18.22;73.32;100248.20;105873;1288;71685;-89
2023/08/31 13:28:09;;;;;;;;;;;;;;;18.26;73.01;100250.20;105387;1296;59528;-85
2023/08/31 13:30:57;;;;;;;;;;;;;;;18.23;72.76;100251.77;105444;1296;60367;-85
2023/08/31 13:34:04;;;;;;;;;;;;;;;18.19;72.66;100253.04;105407;1296;73471;-86
2023/08/31 13:37:10;;;;;;;;;;;;;;;18.18;72.81;100259.21;104853;1297;68531;-86
2023/08/31 13:40:36;;;;;;;;;;;;;;;18.13;72.64;100255.98;104951;1296;72220;-85
2023/08/31 13:44:02;;;;;;;;;;;;;;;18.11;72.72;100258.73;104878;1296;59681;-85
2023/08/31 13:47:09;;;;;;;;;;;;;;;18.10;72.69;100257.57;104851;1295;60091;-85
2023/08/31 13:50:35;;;;;;;;;;;;;;;18.07;72.48;100256.51;103987;1296;75155;-85
2023/08/31 13:54:01;;;;;;;;;;;;;;;18.03;72.52;100258.30;104596;1296;67307;-85
2023/08/31 13:57:27;;;;;;;;;;;;;;;17.97;72.52;100265.40;104836;1299;71888;-85
2023/08/31 14:00:53;;;;;;;;;;;;;;;17.93;72.49;100262.27;104876;1299;61221;-85
2023/08/31 14:04:19;;;;;;;;;;;;;;;17.94;72.49;100260.52;105028;1297;61650;-86
2023/08/31 14:07:24;;;;;;;;;;;;;;;17.95;72.50;100267.27;105748;1288;73235;-86
2023/08/31 14:10:52;;;;;;;;;;;;;;;17.91;72.20;100269.02;106310;1288;68617;-86
2023/08/31 14:13:38;;;;;;;;;;;;;;;17.88;72.12;100272.88;106140;1288;71176;-86
2023/08/31 14:16:44;;;;;;;;;;;;;;;17.75;72.12;100269.83;106218;1287;59167;-85
2023/08/31 14:20:11;;;;;;;;;;;;;;;17.65;72.16;100270.35;106183;1288;58935;-85
2023/08/31 14:23:01;;;;;;;;;;;;;;;17.59;72.10;100278.52;106259;1289;73483;-86
2023/08/31 14:25:48;;;;;;;;;;;;;;;17.52;72.30;100280.74;106283;1288;68807;-85
2023/08/31 14:28:54;;;;;;;;;;;;;;;17.49;72.25;100286.13;106139;1287;72043;-86
2023/08/31 14:32:00;;;;;;;;;;;;;;;17.48;72.24;100287.94;106128;1287;59246;-86
2023/08/31 14:35:26;;;;;;;;;;;;;;;17.48;72.19;100290.55;106225;1288;59406;-86
2023/08/31 14:38:36;;;;;;;;;;;;;;;17.49;72.19;100286.84;106263;1288;74517;-86
2023/08/31 14:41:50;;;;;;;;;;;;;;;17.52;72.24;100281.11;106222;1288;68022;-88
2023/08/31 14:44:40;;;;;;;;;;;;;;;17.57;72.19;100282.09;106212;1288;72740;-88
2023/08/31 14:47:27;;;;;;;;;;;;;;;17.66;72.29;100279.36;106101;1288;59270;-88
2023/08/31 14:50:33;;;;;;;;;;;;;;;17.80;72.29;100274.65;105827;1288;59511;-87
2023/08/31 14:53:59;;;;;;;;;;;;;;;17.94;72.02;100276.34;105665;1288;74600;-88
2023/08/31 14:57:06;;;;;;;;;;;;;;;18.05;71.82;100272.14;105659;1288;68586;-88
2023/08/31 15:00:12;;;;;;;;;;;;;;;18.14;71.85;100268.14;105600;1292;72450;-88
2023/08/31 15:02:59;;;;;;;;;;;;;;;18.20;71.62;100267.48;105639;1288;59472;-88
2023/08/31 15:05:48;;;;;;;;;;;;;;;18.25;71.49;100270.52;105600;1289;59342;-87
2023/08/31 15:08:54;;;;;;;;;;;;;;;18.32;71.56;100269.13;105556;1287;74411;-87
2023/08/31 15:11:41;;;;;;;;;;;;;;;18.32;71.38;100271.20;105578;1288;66697;-85
2023/08/31 15:14:47;;;;;;;;;;;;;;;18.31;71.47;100274.23;105953;1289;73035;-85
2023/08/31 15:18:13;;;;;;;;;;;;;;;18.26;71.24;100282.36;105510;1288;61059;-85
2023/08/31 15:21:38;;;;;;;;;;;;;;;18.23;71.09;100287.05;105647;1288;59847;-87
2023/08/31 15:25:05;;;;;;;;;;;;;;;18.26;71.30;100295.94;105577;1289;73372;-87
2023/08/31 15:28:30;;;;;;;;;;;;;;;18.31;71.22;100296.36;105609;1288;66892;-87
2023/08/31 15:31:56;;;;;;;;;;;;;;;18.37;71.32;100295.01;106303;1287;72600;-88
2023/08/31 15:35:17;;;;;;;;;;;;;;;18.32;71.14;100298.77;105875;1288;61158;-91
2023/08/31 15:38:23;;;;;;;;;;;;;;;18.19;70.61;100307.86;105737;1290;59446;-86
2023/08/31 15:41:45;;;;;;;;;;;;;;;18.04;70.51;100308.98;105541;1288;73688;-86
2023/08/31 15:45:11;;;;;;;;;;;;;;;17.91;70.51;100312.79;105567;1288;68440;-86
2023/08/31 15:48:17;;;;;;;;;;;;;;;17.79;70.52;100314.42;105627;1288;71436;-86
2023/08/31 15:51:24;;;;;;;;;;;;;;;17.73;70.48;100318.05;105431;1293;61270;-86
2023/08/31 15:54:49;;;;;;;;;;;;;;;17.67;70.33;100319.44;105624;1289;59466;-86
2023/08/31 15:57:56;;;;;;;;;;;;;;;17.60;70.30;100320.12;105693;1288;74402;-86
2023/08/31 16:01:04;;;;;;;;;;;;;;;17.58;70.32;100325.81;105609;1288;67262;-86
2023/08/31 16:04:10;;;;;;;;;;;;;;;17.55;70.28;100327.85;105647;1288;71319;-86
2023/08/31 16:06:58;;;;;;;;;;;;;;;17.55;70.35;100331.36;105804;1288;59656;-86
2023/08/31 16:10:24;;;;;;;;;;;;;;;17.58;70.27;100336.79;105616;1287;60546;-86
2023/08/31 16:13:46;;;;;;;;;;;;;;;17.57;70.21;100334.75;105595;1288;73884;-86
2023/08/31 16:17:12;;;;;;;;;;;;;;;17.51;70.09;100340.58;105627;1288;68146;-86
2023/08/31 16:20:37;;;;;;;;;;;;;;;17.43;70.10;100343.80;105690;1288;71381;-86
2023/08/31 16:23:51;;;;;;;;;;;;;;;17.35;70.04;100343.65;106289;1287;58976;-86
2023/08/31 16:27:05;;;;;;;;;;;;;;;17.28;70.17;100343.13;105548;1287;60040;-86
2023/08/31 16:30:21;;;;;;;;;;;;;;;17.18;70.05;100342.16;105614;1289;74336;-86
2023/08/31 16:33:35;;;;;;;;;;;;;;;17.10;70.03;100341.01;105554;1288;68874;-85
2023/08/31 16:36:21;;;;;;;;;;;;;;;17.03;70.01;100340.52;105695;1288;73112;-85
2023/08/31 16:39:35;;;;;;;;;;;;;;;16.96;70.05;100342.41;105437;1288;59426;-86
2023/08/31 16:42:22;;;;;;;;;;;;;;;16.90;69.95;100341.30;105507;1288;61128;-86
2023/08/31 16:45:26;;;;;;;;;;;;;;;16.87;70.08;100342.30;105415;1288;73208;-86
2023/08/31 16:48:33;;;;;;;;;;;;;;;16.84;70.04;100345.55;105544;1288;69979;-86
2023/08/31 16:52:00;;;;;;;;;;;;;;;16.84;70.09;100348.51;106035;1288;71283;-86
2023/08/31 16:54:54;;;;;;;;;;;;;;;16.82;70.09;100346.49;105614;1288;59270;-86
2023/08/31 16:58:23;;;;;;;;;;;;;;;16.79;70.07;100348.05;105494;1287;58633;-86
2023/08/31 17:01:49;;;;;;;;;;;;;;;16.74;70.02;100344.95;105922;1288;74567;-88
2023/08/31 17:05:11;;;;;;;;;;;;;;;16.71;70.03;100344.95;105553;1288;68994;-86
2023/08/31 17:08:36;;;;;;;;;;;;;;;16.65;69.87;100339.63;105646;1288;71327;-86
2023/08/31 17:11:44;;;;;;;;;;;;;;;16.60;69.89;100342.67;105542;1288;59655;-86
2023/08/31 17:14:35;;;;;;;;;;;;;;;16.53;69.85;100345.55;105602;1289;59975;-86
2023/08/31 17:17:25;;;;;;;;;;;;;;;16.46;69.85;100342.55;106177;1288;74997;-86
2023/08/31 17:20:48;;;;;;;;;;;;;;;16.42;69.86;100343.30;105700;1288;68669;-87
2023/08/31 17:23:56;;;;;;;;;;;;;;;16.37;69.94;100343.49;105793;1287;72466;-86
2023/08/31 17:26:47;;;;;;;;;;;;;;;16.29;69.73;100343.33;105627;1289;59301;-86
2023/08/31 17:29:54;;;;;;;;;;;;;;;16.22;69.76;100346.41;105411;1288;62218;-86
2023/08/31 17:33:21;;;;;;;;;;;;;;;16.14;69.76;100347.79;105585;1288;73841;-86
2023/08/31 17:36:12;;;;;;;;;;;;;;;16.07;69.81;100347.79;105931;1288;68098;-86
2023/08/31 17:39:22;;;;;;;;;;;;;;;16.00;69.85;100351.76;105469;1288;70787;-87
2023/08/31 17:42:36;;;;;;;;;;;;;;;15.91;69.89;100355.27;105589;1288;59321;-86
2023/08/31 17:45:46;;;;;;;;;;;;;;;15.86;69.94;100349.35;105551;1288;61627;-86
2023/08/31 17:49:12;;;;;;;;;;;;;;;15.79;69.94;100347.08;105831;1288;73405;-87
2023/08/31 17:52:26;;;;;;;;;;;;;;;15.72;69.97;100347.35;105549;1288;67387;-86
2023/08/31 17:55:21;;;;;;;;;;;;;;;15.67;70.04;100348.46;105505;1289;73051;-86
2023/08/31 17:58:35;;;;;;;;;;;;;;;15.60;70.04;100352.55;105586;1289;61237;-87
2023/08/31 18:02:02;;;;;;;;;;;;;;;15.53;70.11;100351.96;105578;1288;59320;-87
2023/08/31 18:05:24;;;;;;;;;;;;;;;15.46;70.07;100351.52;105741;1288;74508;-87
2023/08/31 18:08:35;;;;;;;;;;;;;;;15.40;70.01;100352.66;105596;1291;67427;-86
2023/08/31 18:11:45;;;;;;;;;;;;;;;15.33;70.13;100356.23;105767;1288;71325;-86
2023/08/31 18:14:51;;;;;;;;;;;;;;;15.26;70.10;100363.10;105586;1288;59181;-87
2023/08/31 18:18:01;;;;;;;;;;;;;;;15.18;70.07;100359.94;105487;1287;59174;-87
2023/08/31 18:21:25;;;;;;;;;;;;;;;15.08;70.22;100365.39;105166;1292;73301;-87
2023/08/31 18:24:51;;;;;;;;;;;;;;;14.98;70.07;100372.07;105131;1294;67231;-86
2023/08/31 18:28:17;;;;;;;;;;;;;;;14.85;70.23;100375.81;105210;1294;73055;-86
2023/08/31 18:31:27;;;;;;;;;;;;;;;14.76;70.18;100372.86;105838;1294;59154;-87
2023/08/31 18:34:13;;;;;;;;;;;;;;;14.70;70.32;100366.33;105776;1293;59430;-87
2023/08/31 18:37:19;;;;;;;;;;;;;;;14.67;70.32;100370.61;105755;1296;73635;-87
2023/08/31 18:40:08;;;;;;;;;;;;;;;14.60;70.35;100374.15;105802;1292;68546;-86
2023/08/31 19:03:40;;;;;;;;;;;;;;;14.30;70.53;100395.68;101833;1291;74303;-86
2023/08/31 19:06:43;;;;;;;;;;;;;;;14.28;70.48;100395.77;105357;1290;68376;-86
2023/08/31 19:09:38;;;;;;;;;;;;;;;14.23;70.56;100396.61;101340;1290;5482358;-88
2023/08/31 19:12:28;;;;;;;;;;;;;;;14.21;70.59;100397.56;105474;1288;59502;-87
2023/08/31 19:15:16;;;;;;;;;;;;;;;14.17;70.57;100400.10;105291;1290;61256;-87
2023/08/31 19:18:41;;;;;;;;;;;;;;;14.13;70.63;100400.58;105477;1293;74617;-87
2023/08/31 19:22:07;;;;;;;;;;;;;;;14.08;70.53;100402.31;105430;1288;67442;-89
2023/08/31 19:25:33;;;;;;;;;;;;;;;14.04;70.68;100399.52;105352;1291;71253;-89
2023/08/31 19:29:00;;;;;;;;;;;;;;;14.02;70.74;100399.77;105356;1291;59515;-89
2023/08/31 19:32:28;;;;;;;;;;;;;;;13.99;70.71;100402.30;105382;1290;59375;-89
2023/08/31 19:35:34;;;;;;;;;;;;;;;13.97;70.76;100397.55;105452;1289;74507;-87
2023/08/31 19:38:20;;;;;;;;;;;;;;;13.97;70.87;100395.80;105340;1290;70120;-85
2023/08/31 19:41:07;;;;;;;;;;;;;;;13.95;70.79;100392.39;105395;1288;73382;-86
2023/08/31 19:43:53;;;;;;;;;;;;;;;13.93;70.79;100397.33;105387;1290;61276;-86
2023/08/31 19:46:42;;;;;;;;;;;;;;;13.90;70.94;100398.80;105620;1290;61064;-87
2023/08/31 19:49:28;;;;;;;;;;;;;;;13.87;70.84;100397.85;105479;1288;73115;-87
2023/08/31 19:52:15;;;;;;;;;;;;;;;13.85;70.95;100401.92;105457;1291;67358;-86
2023/08/31 19:55:02;;;;;;;;;;;;;;;13.84;70.90;100400.89;105387;1288;72544;-87
2023/08/31 19:58:00;;;;;;;;;;;;;;;13.83;70.92;100403.88;105442;1292;62354;-86
2023/08/31 20:00:47;;;;;;;;;;;;;;;13.81;71.03;100401.69;105539;1293;59989;-87
2023/08/31 20:03:41;;;;;;;;;;;;;;;13.79;70.96;100401.58;105470;1289;74714;-87
2023/08/31 20:06:27;;;;;;;;;;;;;;;13.77;70.87;100400.11;105390;1289;73676;-86
2023/08/31 20:09:15;;;;;;;;;;;;;;;13.73;71.04;100404.54;105400;1289;70288;-87
2023/08/31 20:12:02;;;;;;;;;;;;;;;13.71;70.92;100400.65;106149;1288;59054;-87
2023/08/31 20:14:50;;;;;;;;;;;;;;;13.67;71.04;100401.44;106018;1288;59661;-86
2023/08/31 20:17:36;;;;;;;;;;;;;;;13.64;70.91;100402.41;105395;1288;73393;-86
2023/08/31 20:20:23;;;;;;;;;;;;;;;13.61;70.95;100404.94;105311;1292;67577;-86
2023/08/31 20:23:09;;;;;;;;;;;;;;;13.58;71.11;100407.45;105335;1290;71241;-87
2023/08/31 20:25:56;;;;;;;;;;;;;;;13.56;71.16;100407.85;105395;1288;62073;-87
2023/08/31 20:28:42;;;;;;;;;;;;;;;13.55;71.19;100408.05;105277;1291;60979;-87
2023/08/31 20:31:28;;;;;;;;;;;;;;;13.52;71.05;100406.27;105342;1290;74426;-87
2023/08/31 20:34:14;;;;;;;;;;;;;;;13.48;71.13;100407.45;105315;1289;67216;-87
2023/08/31 20:37:04;;;;;;;;;;;;;;;13.44;71.09;100407.91;105356;1288;71374;-86
2023/08/31 20:39:50;;;;;;;;;;;;;;;13.42;71.12;100407.48;105321;1288;61267;-87
2023/08/31 20:42:36;;;;;;;;;;;;;;;13.38;71.16;100408.11;105315;1291;61378;-86
2023/08/31 20:45:42;;;;;;;;;;;;;;;13.34;71.12;100407.55;104965;1293;75998;-86
2023/08/31 20:48:49;;;;;;;;;;;;;;;13.29;71.15;100412.19;104924;1288;68410;-90
2023/08/31 20:59:35;;;;;;;;;;;;;;;13.16;71.33;100431.09;105732;1286;73987;-91
